createdAt,value
2022-09-12T00:00:33.000Z,1018.77
2022-09-12T00:01:30.000Z,1018.73
2022-09-12T00:02:30.000Z,1018.76
2022-09-12T00:03:30.000Z,1018.73
2022-09-12T00:04:30.000Z,1018.76
2022-09-12T00:05:31.000Z,1018.75
2022-09-12T00:06:35.000Z,1018.73
2022-09-12T00:07:29.000Z,1018.69
2022-09-12T00:08:29.000Z,1018.71
2022-09-12T00:09:30.000Z,1018.72
2022-09-12T00:10:30.000Z,1018.73
2022-09-12T00:11:30.000Z,1018.76
2022-09-12T00:12:30.000Z,1018.74
2022-09-12T00:13:30.000Z,1018.78
2022-09-12T00:14:30.000Z,1018.74
2022-09-12T00:15:30.000Z,1018.73
2022-09-12T00:16:31.000Z,1018.75
2022-09-12T00:17:35.000Z,1018.74
2022-09-12T00:18:31.000Z,1018.69
2022-09-12T00:19:30.000Z,1018.70
2022-09-12T00:20:30.000Z,1018.70
2022-09-12T00:21:34.000Z,1018.70
2022-09-12T00:22:29.000Z,1018.69
2022-09-12T00:23:31.000Z,1018.71
2022-09-12T00:24:30.000Z,1018.70
2022-09-12T00:25:30.000Z,1018.69
2022-09-12T00:26:30.000Z,1018.68
2022-09-12T00:27:29.000Z,1018.69
2022-09-12T00:28:32.000Z,1018.71
2022-09-12T00:29:30.000Z,1018.66
2022-09-12T00:30:29.000Z,1018.64
2022-09-12T00:31:30.000Z,1018.62
2022-09-12T00:32:30.000Z,1018.64
2022-09-12T00:33:29.000Z,1018.59
2022-09-12T00:34:30.000Z,1018.61
2022-09-12T00:35:29.000Z,1018.58
2022-09-12T00:36:30.000Z,1018.58
2022-09-12T00:37:30.000Z,1018.60
2022-09-12T00:38:30.000Z,1018.58
2022-09-12T00:39:30.000Z,1018.57
2022-09-12T00:40:30.000Z,1018.55
2022-09-12T00:41:36.000Z,1018.53
2022-09-12T00:42:29.000Z,1018.54
2022-09-12T00:43:39.000Z,1018.54
2022-09-12T00:44:44.000Z,1018.53
2022-09-12T00:45:30.000Z,1018.56
2022-09-12T00:46:40.000Z,1018.54
2022-09-12T00:47:31.000Z,1018.53
2022-09-12T00:48:40.000Z,1018.51
2022-09-12T00:49:44.000Z,1018.49
2022-09-12T00:50:31.000Z,1018.50
2022-09-12T00:51:32.000Z,1018.52
2022-09-12T00:52:40.000Z,1018.42
2022-09-12T00:53:30.000Z,1018.41
2022-09-12T00:54:36.000Z,1018.44
2022-09-12T00:55:38.000Z,1018.46
2022-09-12T00:56:31.000Z,1018.43
2022-09-12T00:57:38.000Z,1018.44
2022-09-12T00:58:40.000Z,1018.47
2022-09-12T00:59:37.000Z,1018.45
2022-09-12T01:00:30.000Z,1018.46
2022-09-12T01:01:30.000Z,1018.45
2022-09-12T01:02:30.000Z,1018.44
2022-09-12T01:03:30.000Z,1018.42
2022-09-12T01:04:30.000Z,1018.44
2022-09-12T01:05:34.000Z,1018.41
2022-09-12T01:06:37.000Z,1018.40
2022-09-12T01:07:29.000Z,1018.39
2022-09-12T01:08:32.000Z,1018.39
2022-09-12T01:09:30.000Z,1018.35
2022-09-12T01:10:33.000Z,1018.31
2022-09-12T01:11:34.000Z,1018.30
2022-09-12T01:12:30.000Z,1018.34
2022-09-12T01:13:32.000Z,1018.32
2022-09-12T01:14:30.000Z,1018.34
2022-09-12T01:15:29.000Z,1018.33
2022-09-12T01:16:30.000Z,1018.33
2022-09-12T01:17:43.000Z,1018.32
2022-09-12T01:18:43.000Z,1018.32
2022-09-12T01:19:53.000Z,1018.31
2022-09-12T01:20:43.000Z,1018.31
2022-09-12T01:21:38.000Z,1018.33
2022-09-12T01:22:41.000Z,1018.30
2022-09-12T01:23:50.000Z,1018.33
2022-09-12T01:24:43.000Z,1018.33
2022-09-12T01:25:51.000Z,1018.33
2022-09-12T01:26:50.000Z,1018.33
2022-09-12T01:27:39.000Z,1018.34
2022-09-12T01:28:53.000Z,1018.34
2022-09-12T01:29:48.000Z,1018.32
2022-09-12T01:30:50.000Z,1018.32
2022-09-12T01:31:56.000Z,1018.29
2022-09-12T01:32:49.000Z,1018.28
2022-09-12T01:33:41.000Z,1018.25
2022-09-12T01:34:42.000Z,1018.24
2022-09-12T01:35:50.000Z,1018.28
2022-09-12T01:36:39.000Z,1018.24
2022-09-12T01:37:42.000Z,1018.25
2022-09-12T01:38:36.000Z,1018.23
2022-09-12T01:39:57.000Z,1018.30
2022-09-12T01:40:49.000Z,1018.28
2022-09-12T01:41:41.000Z,1018.30
2022-09-12T01:42:41.000Z,1018.31
2022-09-12T01:43:43.000Z,1018.26
2022-09-12T01:44:38.000Z,1018.25
2022-09-12T01:45:42.000Z,1018.27
2022-09-12T01:46:51.000Z,1018.26
2022-09-12T01:47:39.000Z,1018.27
2022-09-12T01:48:39.000Z,1018.26
2022-09-12T01:49:40.000Z,1018.26
2022-09-12T01:50:34.000Z,1018.24
2022-09-12T01:51:40.000Z,1018.25
2022-09-12T01:52:41.000Z,1018.25
2022-09-12T01:53:36.000Z,1018.25
2022-09-12T01:54:41.000Z,1018.29
2022-09-12T01:55:39.000Z,1018.22
2022-09-12T01:56:33.000Z,1018.19
2022-09-12T01:57:37.000Z,1018.22
2022-09-12T01:58:40.000Z,1018.22
2022-09-12T01:59:35.000Z,1018.20
2022-09-12T02:00:35.000Z,1018.17
2022-09-12T02:01:32.000Z,1018.18
2022-09-12T02:02:38.000Z,1018.15
2022-09-12T02:03:37.000Z,1018.16
2022-09-12T02:04:41.000Z,1018.16
2022-09-12T02:05:34.000Z,1018.19
2022-09-12T02:06:38.000Z,1018.14
2022-09-12T02:07:37.000Z,1018.16
2022-09-12T02:08:36.000Z,1018.12
2022-09-12T02:09:38.000Z,1018.12
2022-09-12T02:10:37.000Z,1018.12
2022-09-12T02:11:34.000Z,1018.16
2022-09-12T02:12:38.000Z,1018.11
2022-09-12T02:13:38.000Z,1018.14
2022-09-12T02:14:36.000Z,1018.13
2022-09-12T02:15:38.000Z,1018.11
2022-09-12T02:16:39.000Z,1018.14
2022-09-12T02:17:36.000Z,1018.15
2022-09-12T02:18:32.000Z,1018.17
2022-09-12T02:19:38.000Z,1018.16
2022-09-12T02:20:35.000Z,1018.18
2022-09-12T02:21:35.000Z,1018.15
2022-09-12T02:22:30.000Z,1018.15
2022-09-12T02:23:31.000Z,1018.17
2022-09-12T02:24:43.000Z,1018.17
2022-09-12T02:25:30.000Z,1018.14
2022-09-12T02:26:35.000Z,1018.15
2022-09-12T02:27:38.000Z,1018.14
2022-09-12T02:28:34.000Z,1018.13
2022-09-12T02:29:30.000Z,1018.09
2022-09-12T02:30:38.000Z,1018.15
2022-09-12T02:31:40.000Z,1018.11
2022-09-12T02:32:39.000Z,1018.13
2022-09-12T02:33:46.000Z,1018.07
2022-09-12T02:34:45.000Z,1018.09
2022-09-12T02:35:53.000Z,1018.11
2022-09-12T02:36:39.000Z,1018.06
2022-09-12T02:37:47.000Z,1018.08
2022-09-12T02:38:45.000Z,1018.03
2022-09-12T02:39:31.000Z,1018.06
2022-09-12T02:40:32.000Z,1018.07
2022-09-12T02:41:30.000Z,1018.07
2022-09-12T02:42:30.000Z,1018.07
2022-09-12T02:43:30.000Z,1018.04
2022-09-12T02:44:32.000Z,1018.07
2022-09-12T02:45:35.000Z,1018.04
2022-09-12T02:46:37.000Z,1018.02
2022-09-12T02:47:37.000Z,1018.02
2022-09-12T02:48:34.000Z,1018.03
2022-09-12T02:49:30.000Z,1018.01
2022-09-12T02:50:31.000Z,1018.00
2022-09-12T02:51:30.000Z,1018.00
2022-09-12T02:52:30.000Z,1018.02
2022-09-12T02:53:30.000Z,1018.04
2022-09-12T02:54:31.000Z,1017.99
2022-09-12T02:55:35.000Z,1018.02
2022-09-12T02:56:30.000Z,1018.02
2022-09-12T02:57:30.000Z,1018.03
2022-09-12T02:58:31.000Z,1017.99
2022-09-12T02:59:30.000Z,1018.02
2022-09-12T03:00:36.000Z,1017.98
2022-09-12T03:01:41.000Z,1017.94
2022-09-12T03:02:53.000Z,1017.93
2022-09-12T03:03:46.000Z,1017.92
2022-09-12T03:04:53.000Z,1017.93
2022-09-12T03:05:35.000Z,1017.91
2022-09-12T03:06:49.000Z,1017.89
2022-09-12T03:07:46.000Z,1017.92
2022-09-12T03:08:40.000Z,1017.89
2022-09-12T03:09:37.000Z,1017.89
2022-09-12T03:10:57.000Z,1017.91
2022-09-12T03:11:44.000Z,1017.90
2022-09-12T03:12:41.000Z,1017.88
2022-09-12T03:13:38.000Z,1017.88
2022-09-12T03:14:39.000Z,1017.91
2022-09-12T03:15:44.000Z,1017.92
2022-09-12T03:16:54.000Z,1017.92
2022-09-12T03:17:50.000Z,1017.93
2022-09-12T03:18:45.000Z,1017.94
2022-09-12T03:19:39.000Z,1017.93
2022-09-12T03:20:39.000Z,1017.95
2022-09-12T03:21:46.000Z,1017.95
2022-09-12T03:22:45.000Z,1017.93
2022-09-12T03:23:36.000Z,1017.96
2022-09-12T03:24:35.000Z,1017.97
2022-09-12T03:25:38.000Z,1017.95
2022-09-12T03:26:41.000Z,1017.97
2022-09-12T03:27:34.000Z,1017.95
2022-09-12T03:28:32.000Z,1017.96
2022-09-12T03:29:29.000Z,1017.99
2022-09-12T03:30:35.000Z,1017.93
2022-09-12T03:31:30.000Z,1017.97
2022-09-12T03:32:39.000Z,1017.95
2022-09-12T03:33:29.000Z,1017.95
2022-09-12T03:34:29.000Z,1017.95
2022-09-12T03:35:29.000Z,1017.98
2022-09-12T03:36:30.000Z,1017.95
2022-09-12T03:37:29.000Z,1017.96
2022-09-12T03:38:29.000Z,1017.95
2022-09-12T03:39:30.000Z,1017.97
2022-09-12T03:40:29.000Z,1018.00
2022-09-12T03:41:29.000Z,1017.93
2022-09-12T03:42:30.000Z,1017.96
2022-09-12T03:43:29.000Z,1017.94
2022-09-12T03:44:29.000Z,1017.94
2022-09-12T03:45:30.000Z,1017.93
2022-09-12T03:46:29.000Z,1017.95
2022-09-12T03:47:29.000Z,1017.92
2022-09-12T03:48:30.000Z,1017.89
2022-09-12T03:49:29.000Z,1017.92
2022-09-12T03:50:30.000Z,1017.90
2022-09-12T03:51:30.000Z,1017.89
2022-09-12T03:52:29.000Z,1017.90
2022-09-12T03:53:30.000Z,1017.90
2022-09-12T03:54:29.000Z,1017.93
2022-09-12T03:55:29.000Z,1017.93
2022-09-12T03:56:29.000Z,1017.93
2022-09-12T03:57:29.000Z,1017.96
2022-09-12T03:58:30.000Z,1017.95
2022-09-12T03:59:30.000Z,1018.01
2022-09-12T04:00:29.000Z,1017.97
2022-09-12T04:01:30.000Z,1017.98
2022-09-12T04:02:29.000Z,1018.00
2022-09-12T04:03:29.000Z,1017.99
2022-09-12T04:04:30.000Z,1017.98
2022-09-12T04:05:29.000Z,1017.95
2022-09-12T04:06:30.000Z,1017.97
2022-09-12T04:07:29.000Z,1017.98
2022-09-12T04:08:29.000Z,1017.90
2022-09-12T04:09:29.000Z,1017.89
2022-09-12T04:10:29.000Z,1017.91
2022-09-12T04:11:30.000Z,1017.89
2022-09-12T04:12:29.000Z,1017.87
2022-09-12T04:13:29.000Z,1017.86
2022-09-12T04:14:29.000Z,1017.88
2022-09-12T04:15:29.000Z,1017.92
2022-09-12T04:16:30.000Z,1017.92
2022-09-12T04:17:29.000Z,1017.87
2022-09-12T04:18:30.000Z,1017.91
2022-09-12T04:19:29.000Z,1017.92
2022-09-12T04:20:29.000Z,1017.92
2022-09-12T04:21:29.000Z,1017.95
2022-09-12T04:22:30.000Z,1017.87
2022-09-12T04:23:29.000Z,1017.91
2022-09-12T04:24:29.000Z,1017.89
2022-09-12T04:25:29.000Z,1017.93
2022-09-12T04:26:29.000Z,1017.91
2022-09-12T04:27:29.000Z,1017.88
2022-09-12T04:28:31.000Z,1017.90
2022-09-12T04:29:29.000Z,1017.90
2022-09-12T04:30:31.000Z,1017.91
2022-09-12T04:31:29.000Z,1017.93
2022-09-12T04:32:29.000Z,1017.92
2022-09-12T04:33:29.000Z,1017.91
2022-09-12T04:34:29.000Z,1017.94
2022-09-12T04:35:29.000Z,1017.90
2022-09-12T04:36:29.000Z,1017.90
2022-09-12T04:37:29.000Z,1017.91
2022-09-12T04:38:30.000Z,1017.89
2022-09-12T04:39:29.000Z,1017.87
2022-09-12T04:40:30.000Z,1017.89
2022-09-12T04:41:33.000Z,1017.91
2022-09-12T04:42:30.000Z,1017.86
2022-09-12T04:43:30.000Z,1017.85
2022-09-12T04:44:30.000Z,1017.85
2022-09-12T04:45:30.000Z,1017.86
2022-09-12T04:46:36.000Z,1017.85
2022-09-12T04:47:30.000Z,1017.87
2022-09-12T04:48:30.000Z,1017.86
2022-09-12T04:49:30.000Z,1017.88
2022-09-12T04:50:30.000Z,1017.86
2022-09-12T04:51:35.000Z,1017.85
2022-09-12T04:52:29.000Z,1017.86
2022-09-12T04:53:29.000Z,1017.87
2022-09-12T04:54:30.000Z,1017.85
2022-09-12T04:55:33.000Z,1017.80
2022-09-12T04:56:30.000Z,1017.85
2022-09-12T04:57:30.000Z,1017.81
2022-09-12T04:58:31.000Z,1017.79
2022-09-12T04:59:30.000Z,1017.82
2022-09-12T05:00:30.000Z,1017.84
2022-09-12T05:01:29.000Z,1017.83
2022-09-12T05:02:32.000Z,1017.82
2022-09-12T05:03:30.000Z,1017.83
2022-09-12T05:04:30.000Z,1017.83
2022-09-12T05:05:30.000Z,1017.82
2022-09-12T05:06:33.000Z,1017.84
2022-09-12T05:07:30.000Z,1017.83
2022-09-12T05:08:30.000Z,1017.83
2022-09-12T05:09:30.000Z,1017.86
2022-09-12T05:10:29.000Z,1017.86
2022-09-12T05:11:33.000Z,1017.84
2022-09-12T05:12:30.000Z,1017.83
2022-09-12T05:13:30.000Z,1017.83
2022-09-12T05:14:32.000Z,1017.82
2022-09-12T05:15:29.000Z,1017.83
2022-09-12T05:16:30.000Z,1017.86
2022-09-12T05:17:30.000Z,1017.88
2022-09-12T05:18:31.000Z,1017.87
2022-09-12T05:19:30.000Z,1017.85
2022-09-12T05:20:31.000Z,1017.88
2022-09-12T05:21:30.000Z,1017.88
2022-09-12T05:22:29.000Z,1017.86
2022-09-12T05:23:30.000Z,1017.88
2022-09-12T05:24:29.000Z,1017.87
2022-09-12T05:25:30.000Z,1017.85
2022-09-12T05:26:30.000Z,1017.88
2022-09-12T05:27:29.000Z,1017.86
2022-09-12T05:28:33.000Z,1017.87
2022-09-12T05:29:30.000Z,1017.87
2022-09-12T05:30:29.000Z,1017.84
2022-09-12T05:31:29.000Z,1017.88
2022-09-12T05:32:30.000Z,1017.87
2022-09-12T05:33:31.000Z,1017.85
2022-09-12T05:34:29.000Z,1017.85
2022-09-12T05:35:29.000Z,1017.83
2022-09-12T05:36:30.000Z,1017.81
2022-09-12T05:37:29.000Z,1017.81
2022-09-12T05:38:30.000Z,1017.83
2022-09-12T05:39:29.000Z,1017.86
2022-09-12T05:40:30.000Z,1017.81
2022-09-12T05:41:31.000Z,1017.84
2022-09-12T05:42:29.000Z,1017.82
2022-09-12T05:43:31.000Z,1017.82
2022-09-12T05:44:29.000Z,1017.84
2022-09-12T05:45:31.000Z,1017.84
2022-09-12T05:46:39.000Z,1017.84
2022-09-12T05:47:30.000Z,1017.84
2022-09-12T05:48:30.000Z,1017.87
2022-09-12T05:49:30.000Z,1017.83
2022-09-12T05:50:29.000Z,1017.85
2022-09-12T05:51:35.000Z,1017.85
2022-09-12T05:52:30.000Z,1017.84
2022-09-12T05:53:30.000Z,1017.81
2022-09-12T05:54:29.000Z,1017.84
2022-09-12T05:55:30.000Z,1017.83
2022-09-12T05:56:33.000Z,1017.87
2022-09-12T05:57:30.000Z,1017.88
2022-09-12T05:58:30.000Z,1017.88
2022-09-12T05:59:30.000Z,1017.91
2022-09-12T06:00:29.000Z,1017.92
2022-09-12T06:01:31.000Z,1017.92
2022-09-12T06:02:30.000Z,1017.92
2022-09-12T06:03:30.000Z,1017.92
2022-09-12T06:04:29.000Z,1017.90
2022-09-12T06:05:33.000Z,1017.89
2022-09-12T06:06:31.000Z,1017.90
2022-09-12T06:07:31.000Z,1017.89
2022-09-12T06:08:31.000Z,1017.92
2022-09-12T06:09:29.000Z,1017.90
2022-09-12T06:10:29.000Z,1017.92
2022-09-12T06:11:31.000Z,1017.94
2022-09-12T06:12:29.000Z,1017.92
2022-09-12T06:13:31.000Z,1017.96
2022-09-12T06:14:31.000Z,1017.94
2022-09-12T06:15:30.000Z,1017.96
2022-09-12T06:16:31.000Z,1018.01
2022-09-12T06:17:29.000Z,1018.03
2022-09-12T06:18:30.000Z,1018.03
2022-09-12T06:19:29.000Z,1018.02
2022-09-12T06:20:29.000Z,1017.99
2022-09-12T06:21:29.000Z,1018.00
2022-09-12T06:22:29.000Z,1018.02
2022-09-12T06:23:29.000Z,1017.99
2022-09-12T06:24:29.000Z,1018.00
2022-09-12T06:25:29.000Z,1017.97
2022-09-12T06:26:29.000Z,1018.02
2022-09-12T06:27:29.000Z,1018.01
2022-09-12T06:28:30.000Z,1018.03
2022-09-12T06:29:30.000Z,1017.99
2022-09-12T06:30:29.000Z,1018.05
2022-09-12T06:31:35.000Z,1018.05
2022-09-12T06:32:29.000Z,1018.03
2022-09-12T06:33:32.000Z,1018.06
2022-09-12T06:34:29.000Z,1018.06
2022-09-12T06:35:29.000Z,1018.02
2022-09-12T06:36:32.000Z,1018.02
2022-09-12T06:37:29.000Z,1018.01
2022-09-12T06:38:30.000Z,1017.94
2022-09-12T06:39:31.000Z,1017.94
2022-09-12T06:40:30.000Z,1017.92
2022-09-12T06:41:30.000Z,1017.92
2022-09-12T06:42:29.000Z,1017.91
2022-09-12T06:43:29.000Z,1017.86
2022-09-12T06:44:30.000Z,1017.83
2022-09-12T06:45:29.000Z,1017.82
2022-09-12T06:46:29.000Z,1017.81
2022-09-12T06:47:29.000Z,1017.79
2022-09-12T06:48:29.000Z,1017.76
2022-09-12T06:49:30.000Z,1017.75
2022-09-12T06:50:29.000Z,1017.76
2022-09-12T06:51:29.000Z,1017.73
2022-09-12T06:52:29.000Z,1017.72
2022-09-12T06:53:31.000Z,1017.72
2022-09-12T06:54:29.000Z,1017.70
2022-09-12T06:55:29.000Z,1017.74
2022-09-12T06:56:30.000Z,1017.71
2022-09-12T06:57:31.000Z,1017.73
2022-09-12T06:58:30.000Z,1017.75
2022-09-12T06:59:30.000Z,1017.76
2022-09-12T07:00:30.000Z,1017.79
2022-09-12T07:01:30.000Z,1017.79
2022-09-12T07:02:29.000Z,1017.82
2022-09-12T07:03:30.000Z,1017.82
2022-09-12T07:04:32.000Z,1017.84
2022-09-12T07:05:32.000Z,1017.85
2022-09-12T07:06:38.000Z,1017.88
2022-09-12T07:07:32.000Z,1017.88
2022-09-12T07:08:30.000Z,1017.90
2022-09-12T07:09:29.000Z,1017.90
2022-09-12T07:10:30.000Z,1017.95
2022-09-12T07:11:33.000Z,1017.90
2022-09-12T07:12:30.000Z,1017.94
2022-09-12T07:13:29.000Z,1017.93
2022-09-12T07:14:30.000Z,1017.94
2022-09-12T07:15:30.000Z,1017.95
2022-09-12T07:16:30.000Z,1017.94
2022-09-12T07:17:29.000Z,1017.97
2022-09-12T07:18:32.000Z,1017.93
2022-09-12T07:19:29.000Z,1017.95
2022-09-12T07:20:31.000Z,1017.95
2022-09-12T07:21:30.000Z,1017.97
2022-09-12T07:22:29.000Z,1018.01
2022-09-12T07:23:30.000Z,1018.03
2022-09-12T07:24:29.000Z,1017.98
2022-09-12T07:25:30.000Z,1017.99
2022-09-12T07:26:30.000Z,1017.99
2022-09-12T07:27:30.000Z,1017.99
2022-09-12T07:28:31.000Z,1018.00
2022-09-12T07:29:30.000Z,1018.03
2022-09-12T07:30:30.000Z,1018.04
2022-09-12T07:31:30.000Z,1018.03
2022-09-12T07:32:30.000Z,1018.00
2022-09-12T07:33:30.000Z,1018.01
2022-09-12T07:34:30.000Z,1017.99
2022-09-12T07:35:31.000Z,1017.98
2022-09-12T07:36:30.000Z,1017.99
2022-09-12T07:37:30.000Z,1017.99
2022-09-12T07:38:30.000Z,1018.00
2022-09-12T07:39:30.000Z,1017.97
2022-09-12T07:40:29.000Z,1017.96
2022-09-12T07:41:31.000Z,1017.93
2022-09-12T07:42:30.000Z,1017.89
2022-09-12T07:43:29.000Z,1017.92
2022-09-12T07:44:29.000Z,1017.88
2022-09-12T07:45:30.000Z,1017.91
2022-09-12T07:46:30.000Z,1017.90
2022-09-12T07:47:29.000Z,1017.92
2022-09-12T07:48:30.000Z,1017.91
2022-09-12T07:49:29.000Z,1017.89
2022-09-12T07:50:30.000Z,1017.90
2022-09-12T07:51:30.000Z,1017.90
2022-09-12T07:52:30.000Z,1017.88
2022-09-12T07:53:32.000Z,1017.85
2022-09-12T07:54:32.000Z,1017.87
2022-09-12T07:55:30.000Z,1017.90
2022-09-12T07:56:29.000Z,1017.85
2022-09-12T07:57:30.000Z,1017.84
2022-09-12T07:58:31.000Z,1017.81
2022-09-12T07:59:29.000Z,1017.80
2022-09-12T08:00:34.000Z,1017.80
2022-09-12T08:01:30.000Z,1017.84
2022-09-12T08:02:30.000Z,1017.84
2022-09-12T08:03:30.000Z,1017.86
2022-09-12T08:04:29.000Z,1017.85
2022-09-12T08:05:30.000Z,1017.88
2022-09-12T08:06:32.000Z,1017.87
2022-09-12T08:07:30.000Z,1017.90
2022-09-12T08:08:30.000Z,1017.88
2022-09-12T08:09:30.000Z,1017.91
2022-09-12T08:10:30.000Z,1017.93
2022-09-12T08:11:29.000Z,1017.90
2022-09-12T08:12:31.000Z,1017.93
2022-09-12T08:13:31.000Z,1017.93
2022-09-12T08:14:29.000Z,1017.93
2022-09-12T08:15:30.000Z,1017.91
2022-09-12T08:16:31.000Z,1017.92
2022-09-12T08:17:29.000Z,1017.91
2022-09-12T08:18:31.000Z,1017.90
2022-09-12T08:19:30.000Z,1017.81
2022-09-12T08:20:30.000Z,1017.78
2022-09-12T08:21:32.000Z,1017.70
2022-09-12T08:22:30.000Z,1017.74
2022-09-12T08:23:30.000Z,1017.73
2022-09-12T08:24:31.000Z,1017.71
2022-09-12T08:25:30.000Z,1017.71
2022-09-12T08:26:31.000Z,1017.72
2022-09-12T08:27:29.000Z,1017.73
2022-09-12T08:28:31.000Z,1017.72
2022-09-12T08:29:30.000Z,1017.71
2022-09-12T08:30:29.000Z,1017.70
2022-09-12T08:31:35.000Z,1017.70
2022-09-12T08:32:29.000Z,1017.70
2022-09-12T08:33:33.000Z,1017.72
2022-09-12T08:34:30.000Z,1017.72
2022-09-12T08:35:29.000Z,1017.70
2022-09-12T08:36:30.000Z,1017.71
2022-09-12T08:37:30.000Z,1017.68
2022-09-12T08:38:30.000Z,1017.67
2022-09-12T08:39:31.000Z,1017.68
2022-09-12T08:40:31.000Z,1017.67
2022-09-12T08:41:35.000Z,1017.67
2022-09-12T08:42:55.000Z,1017.67
2022-09-12T08:43:49.000Z,1017.68
2022-09-12T08:44:39.000Z,1017.66
2022-09-12T08:45:40.000Z,1017.69
2022-09-12T08:46:39.000Z,1017.70
2022-09-12T08:47:38.000Z,1017.72
2022-09-12T08:48:30.000Z,1017.69
2022-09-12T08:49:36.000Z,1017.67
2022-09-12T08:50:31.000Z,1017.64
2022-09-12T08:51:32.000Z,1017.60
2022-09-12T08:52:37.000Z,1017.60
2022-09-12T08:53:32.000Z,1017.58
2022-09-12T08:54:30.000Z,1017.57
2022-09-12T08:55:55.000Z,1017.58
2022-09-12T08:56:34.000Z,1017.59
2022-09-12T08:57:29.000Z,1017.62
2022-09-12T08:58:36.000Z,1017.62
2022-09-12T08:59:35.000Z,1017.62
2022-09-12T09:00:39.000Z,1017.59
2022-09-12T09:01:35.000Z,1017.59
2022-09-12T09:02:44.000Z,1017.57
2022-09-12T09:03:49.000Z,1017.58
2022-09-12T09:04:42.000Z,1017.59
2022-09-12T09:05:39.000Z,1017.61
2022-09-12T09:06:39.000Z,1017.60
2022-09-12T09:07:39.000Z,1017.56
2022-09-12T09:08:49.000Z,1017.57
2022-09-12T09:09:40.000Z,1017.59
2022-09-12T09:10:46.000Z,1017.59
2022-09-12T09:11:39.000Z,1017.56
2022-09-12T09:12:39.000Z,1017.60
2022-09-12T09:13:44.000Z,1017.54
2022-09-12T09:14:51.000Z,1017.61
2022-09-12T09:15:44.000Z,1017.60
2022-09-12T09:16:33.000Z,1017.58
2022-09-12T09:17:39.000Z,1017.59
2022-09-12T09:18:32.000Z,1017.56
2022-09-12T09:19:36.000Z,1017.58
2022-09-12T09:20:51.000Z,1017.55
2022-09-12T09:21:39.000Z,1017.57
2022-09-12T09:22:40.000Z,1017.57
2022-09-12T09:23:35.000Z,1017.57
2022-09-12T09:24:38.000Z,1017.61
2022-09-12T09:25:41.000Z,1017.55
2022-09-12T09:26:40.000Z,1017.58
2022-09-12T09:27:40.000Z,1017.55
2022-09-12T09:28:40.000Z,1017.60
2022-09-12T09:29:39.000Z,1017.55
2022-09-12T09:30:30.000Z,1017.55
2022-09-12T09:31:34.000Z,1017.54
2022-09-12T09:32:35.000Z,1017.54
2022-09-12T09:33:33.000Z,1017.54
2022-09-12T09:34:30.000Z,1017.52
2022-09-12T09:35:46.000Z,1017.52
2022-09-12T09:36:39.000Z,1017.48
2022-09-12T09:37:40.000Z,1017.53
2022-09-12T09:38:52.000Z,1017.50
2022-09-12T09:39:47.000Z,1017.45
2022-09-12T09:40:42.000Z,1017.48
2022-09-12T09:41:42.000Z,1017.46
2022-09-12T09:42:40.000Z,1017.47
2022-09-12T09:43:30.000Z,1017.45
2022-09-12T09:44:30.000Z,1017.43
2022-09-12T09:45:30.000Z,1017.41
2022-09-12T09:46:31.000Z,1017.45
2022-09-12T09:47:30.000Z,1017.45
2022-09-12T09:48:35.000Z,1017.45
2022-09-12T09:49:33.000Z,1017.42
2022-09-12T09:50:30.000Z,1017.47
2022-09-12T09:51:35.000Z,1017.46
2022-09-12T09:52:30.000Z,1017.45
2022-09-12T09:53:42.000Z,1017.44
2022-09-12T09:54:41.000Z,1017.42
2022-09-12T09:55:38.000Z,1017.41
2022-09-12T09:56:36.000Z,1017.36
2022-09-12T09:57:48.000Z,1017.38
2022-09-12T09:58:32.000Z,1017.42
2022-09-12T09:59:32.000Z,1017.42
2022-09-12T10:00:33.000Z,1017.38
2022-09-12T10:01:30.000Z,1017.34
2022-09-12T10:02:30.000Z,1017.35
2022-09-12T10:03:32.000Z,1017.34
2022-09-12T10:04:33.000Z,1017.32
2022-09-12T10:05:33.000Z,1017.31
2022-09-12T10:06:32.000Z,1017.33
2022-09-12T10:07:30.000Z,1017.32
2022-09-12T10:08:32.000Z,1017.32
2022-09-12T10:09:34.000Z,1017.31
2022-09-12T10:10:30.000Z,1017.33
2022-09-12T10:11:31.000Z,1017.32
2022-09-12T10:12:30.000Z,1017.32
2022-09-12T10:13:38.000Z,1017.31
2022-09-12T10:14:52.000Z,1017.25
2022-09-12T10:15:30.000Z,1017.26
2022-09-12T10:16:32.000Z,1017.25
2022-09-12T10:17:40.000Z,1017.27
2022-09-12T10:18:37.000Z,1017.26
2022-09-12T10:19:36.000Z,1017.25
2022-09-12T10:20:39.000Z,1017.24
2022-09-12T10:21:46.000Z,1017.24
2022-09-12T10:22:30.000Z,1017.25
2022-09-12T10:23:34.000Z,1017.22
2022-09-12T10:24:37.000Z,1017.20
2022-09-12T10:25:30.000Z,1017.12
2022-09-12T10:26:33.000Z,1017.15
2022-09-12T10:27:31.000Z,1017.15
2022-09-12T10:28:37.000Z,1017.14
2022-09-12T10:29:33.000Z,1017.15
2022-09-12T10:30:30.000Z,1017.12
2022-09-12T10:31:51.000Z,1017.09
2022-09-12T10:32:37.000Z,1017.09
2022-09-12T10:33:38.000Z,1017.07
2022-09-12T10:34:37.000Z,1017.04
2022-09-12T10:35:42.000Z,1017.07
2022-09-12T10:36:37.000Z,1017.05
2022-09-12T10:37:35.000Z,1017.04
2022-09-12T10:38:31.000Z,1017.03
2022-09-12T10:39:30.000Z,1017.01
2022-09-12T10:40:38.000Z,1016.95
2022-09-12T10:41:38.000Z,1016.97
2022-09-12T10:42:39.000Z,1016.96
2022-09-12T10:43:38.000Z,1016.98
2022-09-12T10:44:32.000Z,1016.95
2022-09-12T10:45:32.000Z,1016.94
2022-09-12T10:46:29.000Z,1016.99
2022-09-12T10:47:30.000Z,1016.97
2022-09-12T10:48:31.000Z,1016.97
2022-09-12T10:49:30.000Z,1017.00
2022-09-12T10:50:37.000Z,1017.00
2022-09-12T10:51:29.000Z,1016.99
2022-09-12T10:52:29.000Z,1016.98
2022-09-12T10:53:38.000Z,1016.97
2022-09-12T10:54:29.000Z,1016.97
2022-09-12T10:55:33.000Z,1016.94
2022-09-12T10:56:33.000Z,1016.93
2022-09-12T10:57:53.000Z,1016.89
2022-09-12T10:58:45.000Z,1016.86
2022-09-12T10:59:40.000Z,1016.86
2022-09-12T11:00:36.000Z,1016.83
2022-09-12T11:01:48.000Z,1016.86
2022-09-12T11:02:57.000Z,1016.82
2022-09-12T11:03:54.000Z,1016.83
2022-09-12T11:04:48.000Z,1016.80
2022-09-12T11:05:41.000Z,1016.74
2022-09-12T11:06:40.000Z,1016.75
2022-09-12T11:07:44.000Z,1016.75
2022-09-12T11:08:43.000Z,1016.73
2022-09-12T11:09:50.000Z,1016.73
2022-09-12T11:10:44.000Z,1016.73
2022-09-12T11:11:49.000Z,1016.72
2022-09-12T11:12:40.000Z,1016.74
2022-09-12T11:14:00.000Z,1016.67
2022-09-12T11:14:47.000Z,1016.68
2022-09-12T11:15:53.000Z,1016.64
2022-09-12T11:16:52.000Z,1016.64
2022-09-12T11:17:55.000Z,1016.58
2022-09-12T11:18:50.000Z,1016.57
2022-09-12T11:19:40.000Z,1016.52
2022-09-12T11:20:40.000Z,1016.52
2022-09-12T11:21:57.000Z,1016.53
2022-09-12T11:22:43.000Z,1016.54
2022-09-12T11:23:50.000Z,1016.51
2022-09-12T11:24:50.000Z,1016.52
2022-09-12T11:25:38.000Z,1016.52
2022-09-12T11:26:53.000Z,1016.54
2022-09-12T11:27:52.000Z,1016.52
2022-09-12T11:28:52.000Z,1016.52
2022-09-12T11:29:40.000Z,1016.49
2022-09-12T11:30:41.000Z,1016.49
2022-09-12T11:31:40.000Z,1016.47
2022-09-12T11:32:41.000Z,1016.49
2022-09-12T11:33:40.000Z,1016.49
2022-09-12T11:34:40.000Z,1016.48
2022-09-12T11:35:37.000Z,1016.42
2022-09-12T11:36:40.000Z,1016.41
2022-09-12T11:37:40.000Z,1016.41
2022-09-12T11:38:52.000Z,1016.39
2022-09-12T11:39:37.000Z,1016.39
2022-09-12T11:40:41.000Z,1016.43
2022-09-12T11:41:35.000Z,1016.39
2022-09-12T11:42:36.000Z,1016.42
2022-09-12T11:43:37.000Z,1016.41
2022-09-12T11:44:40.000Z,1016.43
2022-09-12T11:45:38.000Z,1016.42
2022-09-12T11:46:35.000Z,1016.40
2022-09-12T11:47:33.000Z,1016.36
2022-09-12T11:48:54.000Z,1016.31
2022-09-12T11:49:38.000Z,1016.31
2022-09-12T11:50:30.000Z,1016.27
2022-09-12T11:51:49.000Z,1016.25
2022-09-12T11:52:36.000Z,1016.27
2022-09-12T11:53:36.000Z,1016.23
2022-09-12T11:54:37.000Z,1016.21
2022-09-12T11:55:42.000Z,1016.24
2022-09-12T11:56:29.000Z,1016.23
2022-09-12T11:57:35.000Z,1016.26
2022-09-12T11:58:29.000Z,1016.22
2022-09-12T11:59:44.000Z,1016.27
2022-09-12T12:00:36.000Z,1016.27
2022-09-12T12:01:41.000Z,1016.28
2022-09-12T12:02:35.000Z,1016.21
2022-09-12T12:03:39.000Z,1016.25
2022-09-12T12:04:38.000Z,1016.24
2022-09-12T12:05:50.000Z,1016.26